createdAt,value
2022-09-17T00:00:21.945Z,94.15
2022-09-17T00:02:49.751Z,96.38
2022-09-17T00:05:16.085Z,91.15
2022-09-17T00:07:42.347Z,89.28
2022-09-17T00:10:08.599Z,85.95
2022-09-17T00:12:34.854Z,84.88
2022-09-17T00:15:01.118Z,82.43
2022-09-17T00:17:27.376Z,83.15
2022-09-17T00:19:53.649Z,88.45
2022-09-17T00:22:19.905Z,101.85
2022-09-17T00:24:46.180Z,120.28
2022-09-17T00:27:12.440Z,121.15
2022-09-17T00:29:39.208Z,104.90
2022-09-17T00:32:05.470Z,111.15
2022-09-17T00:34:31.743Z,103.03
2022-09-17T00:36:58.005Z,101.88
2022-09-17T00:39:24.274Z,91.28
2022-09-17T00:41:50.542Z,84.10
2022-09-17T00:44:16.880Z,81.78
2022-09-17T00:46:43.201Z,90.38
2022-09-17T00:49:09.559Z,98.55
2022-09-17T00:51:35.835Z,100.70
2022-09-17T00:54:02.104Z,92.03
2022-09-17T00:56:28.356Z,98.78
2022-09-17T00:58:54.623Z,102.95
2022-09-17T01:01:20.942Z,96.03
2022-09-17T01:03:47.224Z,95.97
2022-09-17T01:06:13.499Z,95.15
2022-09-17T01:08:39.766Z,103.20
2022-09-17T01:11:06.047Z,105.65
2022-09-17T01:13:32.296Z,93.75
2022-09-17T01:15:58.704Z,89.45
2022-09-17T01:18:24.985Z,91.10
2022-09-17T01:20:51.262Z,91.65
2022-09-17T01:23:17.644Z,93.30
2022-09-17T01:25:43.970Z,102.18
2022-09-17T01:28:10.225Z,93.55
2022-09-17T01:30:36.496Z,89.93
2022-09-17T01:33:02.794Z,96.95
2022-09-17T01:35:29.073Z,91.68
2022-09-17T01:37:55.392Z,88.20
2022-09-17T01:40:24.369Z,88.55
2022-09-17T01:42:50.699Z,79.63
2022-09-17T01:45:16.957Z,82.55
2022-09-17T01:47:43.223Z,89.15
2022-09-17T01:50:09.626Z,95.03
2022-09-17T01:52:35.897Z,94.28
2022-09-17T01:55:02.163Z,82.95
2022-09-17T01:57:28.415Z,79.35
2022-09-17T01:59:54.667Z,73.43
2022-09-17T02:02:20.951Z,70.25
2022-09-17T02:04:47.231Z,69.72
2022-09-17T02:07:13.611Z,77.65
2022-09-17T02:09:39.870Z,81.97
2022-09-17T02:12:06.128Z,80.63
2022-09-17T02:14:32.393Z,88.38
2022-09-17T02:16:58.693Z,78.50
2022-09-17T02:19:24.960Z,75.28
2022-09-17T02:21:51.229Z,66.30
2022-09-17T02:24:18.066Z,66.72
2022-09-17T02:26:44.319Z,80.70
2022-09-17T02:29:10.584Z,80.68
2022-09-17T02:31:36.899Z,76.97
2022-09-17T02:34:03.223Z,77.32
2022-09-17T02:36:29.557Z,71.43
2022-09-17T02:38:55.856Z,58.97
2022-09-17T02:41:22.113Z,62.92
2022-09-17T02:43:48.387Z,64.63
2022-09-17T02:46:14.705Z,64.63
2022-09-17T02:48:41.005Z,60.92
2022-09-17T02:51:07.259Z,68.97
2022-09-17T02:53:33.616Z,63.08
2022-09-17T02:55:59.887Z,55.80
2022-09-17T02:58:26.192Z,56.35
2022-09-17T03:00:52.489Z,54.22
2022-09-17T03:03:18.793Z,54.25
2022-09-17T03:05:45.490Z,54.75
2022-09-17T03:08:12.325Z,47.30
2022-09-17T03:10:38.587Z,55.95
2022-09-17T03:13:04.837Z,52.75
2022-09-17T03:15:31.108Z,57.28
2022-09-17T03:17:57.367Z,54.45
2022-09-17T03:20:23.623Z,52.38
2022-09-17T03:22:49.880Z,50.97
2022-09-17T03:25:16.142Z,52.78
2022-09-17T03:27:42.396Z,53.60
2022-09-17T03:30:08.681Z,50.15
2022-09-17T03:32:34.940Z,53.53
2022-09-17T03:35:01.201Z,61.63
2022-09-17T03:37:32.242Z,60.08
2022-09-17T03:39:59.302Z,58.25
2022-09-17T03:42:25.600Z,81.82
2022-09-17T03:44:51.863Z,85.63
2022-09-17T03:47:18.132Z,84.63
2022-09-17T03:49:44.382Z,73.07
2022-09-17T03:52:10.641Z,53.90
2022-09-17T03:54:36.896Z,64.95
2022-09-17T03:57:03.242Z,68.45
2022-09-17T03:59:30.035Z,65.00
2022-09-17T04:01:56.381Z,66.05
2022-09-17T04:04:22.743Z,64.68
2022-09-17T04:06:49.214Z,69.05
2022-09-17T04:09:15.487Z,66.75
2022-09-17T04:11:41.745Z,62.60
2022-09-17T04:14:08.037Z,68.25
2022-09-17T04:16:34.343Z,63.00
2022-09-17T04:19:00.834Z,66.40
2022-09-17T04:21:27.497Z,52.67
2022-09-17T04:23:53.773Z,52.28
2022-09-17T04:26:20.049Z,52.33
2022-09-17T04:28:46.369Z,61.80
2022-09-17T04:31:12.711Z,62.13
2022-09-17T04:33:39.040Z,64.68
2022-09-17T04:36:05.304Z,64.90
2022-09-17T04:38:31.578Z,61.13
2022-09-17T04:40:57.881Z,48.35
2022-09-17T04:43:24.149Z,58.10
2022-09-17T04:45:50.738Z,55.28
2022-09-17T04:48:17.007Z,57.20
2022-09-17T04:50:43.366Z,69.47
2022-09-17T04:53:09.648Z,64.28
2022-09-17T04:55:35.925Z,112.28
2022-09-17T04:58:02.608Z,125.97
2022-09-17T05:00:28.873Z,135.88
2022-09-17T05:02:55.127Z,58.20
2022-09-17T05:05:21.410Z,87.55
2022-09-17T05:07:50.809Z,84.75
2022-09-17T05:10:17.069Z,125.28
2022-09-17T05:12:43.620Z,85.00
2022-09-17T05:15:09.912Z,57.50
2022-09-17T05:17:36.179Z,58.03
2022-09-17T05:20:02.530Z,65.78
2022-09-17T05:22:28.798Z,61.85
2022-09-17T05:24:55.047Z,67.82
2022-09-17T05:27:21.317Z,66.88
2022-09-17T05:29:47.590Z,61.55
2022-09-17T05:32:13.845Z,77.20
2022-09-17T05:34:40.504Z,72.68
2022-09-17T05:37:06.760Z,80.93
2022-09-17T05:39:33.310Z,77.00
2022-09-17T05:42:03.645Z,72.28
2022-09-17T05:44:29.903Z,76.38
2022-09-17T05:46:56.216Z,68.10
2022-09-17T05:49:22.554Z,64.82
2022-09-17T05:51:48.817Z,77.22
2022-09-17T05:54:15.162Z,77.40
2022-09-17T05:56:41.420Z,76.53
2022-09-17T05:59:07.840Z,75.25
2022-09-17T06:01:34.142Z,73.40
2022-09-17T06:04:02.514Z,74.40
2022-09-17T06:06:30.452Z,69.30
2022-09-17T06:08:56.712Z,64.63
2022-09-17T06:11:22.975Z,65.85
2022-09-17T06:13:53.063Z,67.03
2022-09-17T06:16:19.384Z,65.38
2022-09-17T06:18:45.731Z,65.55
2022-09-17T06:21:12.048Z,70.68
2022-09-17T06:23:38.308Z,72.68
2022-09-17T06:26:04.566Z,79.22
2022-09-17T06:28:30.839Z,79.30
2022-09-17T06:30:57.197Z,73.38
2022-09-17T06:33:23.664Z,65.00
2022-09-17T06:35:49.943Z,66.32
2022-09-17T06:38:16.227Z,65.00
2022-09-17T06:40:42.604Z,54.90
2022-09-17T06:43:08.931Z,65.25
2022-09-17T06:45:35.200Z,70.60
2022-09-17T06:48:01.471Z,68.50
2022-09-17T06:50:27.736Z,84.18
2022-09-17T06:52:54.017Z,72.38
2022-09-17T06:55:20.293Z,70.57
2022-09-17T06:57:46.585Z,69.00
2022-09-17T07:00:12.859Z,74.47
2022-09-17T07:02:39.130Z,69.53
2022-09-17T07:05:05.385Z,69.85
2022-09-17T07:07:32.609Z,76.43
2022-09-17T07:09:58.861Z,73.88
2022-09-17T07:12:25.243Z,79.88
2022-09-17T07:14:51.604Z,84.90
2022-09-17T07:17:17.862Z,77.38
2022-09-17T07:19:44.128Z,80.45
2022-09-17T07:22:10.397Z,87.25
2022-09-17T07:24:36.668Z,132.82
2022-09-17T07:27:02.944Z,130.80
2022-09-17T07:29:29.209Z,102.32
2022-09-17T07:31:55.664Z,184.05
2022-09-17T07:34:22.002Z,172.10
2022-09-17T07:36:48.261Z,130.95
2022-09-17T07:39:15.008Z,111.75
2022-09-17T07:41:41.267Z,121.78
2022-09-17T07:44:07.843Z,110.90
2022-09-17T07:46:34.141Z,96.20
2022-09-17T07:49:00.476Z,90.28
2022-09-17T07:51:28.309Z,89.07
2022-09-17T07:53:54.602Z,80.95
2022-09-17T07:56:20.886Z,74.47
2022-09-17T07:58:47.164Z,89.38
2022-09-17T08:01:13.466Z,80.70
2022-09-17T08:03:41.673Z,66.88
2022-09-17T08:06:07.934Z,71.35
2022-09-17T08:08:34.586Z,78.75
2022-09-17T08:11:00.887Z,79.43
2022-09-17T08:13:27.156Z,91.80
2022-09-17T08:15:53.474Z,89.90
2022-09-17T08:18:19.973Z,83.95
2022-09-17T08:20:46.564Z,87.90
2022-09-17T08:23:12.813Z,91.60
2022-09-17T08:25:39.088Z,86.05
2022-09-17T08:28:05.342Z,102.10
2022-09-17T08:30:32.319Z,112.38
2022-09-17T08:32:58.687Z,109.35
2022-09-17T08:35:26.141Z,112.43
2022-09-17T08:37:52.422Z,120.18
2022-09-17T08:40:19.350Z,151.57
2022-09-17T08:42:45.726Z,166.57
2022-09-17T08:45:14.200Z,158.15
2022-09-17T08:47:41.133Z,180.65
2022-09-17T08:50:07.411Z,196.70
2022-09-17T08:52:34.191Z,160.25
2022-09-17T08:55:00.469Z,116.85
2022-09-17T08:57:26.983Z,81.93
2022-09-17T08:59:53.242Z,126.20
2022-09-17T09:02:19.571Z,55.10
2022-09-17T09:04:45.895Z,80.15
2022-09-17T09:07:12.184Z,60.15
2022-09-17T09:09:39.014Z,52.42
2022-09-17T09:12:07.892Z,59.03
2022-09-17T09:14:34.164Z,50.05
2022-09-17T09:17:01.018Z,57.72
2022-09-17T09:19:27.314Z,98.07
2022-09-17T09:21:53.653Z,59.85
2022-09-17T09:24:19.903Z,74.55
2022-09-17T09:26:46.187Z,90.22
2022-09-17T09:29:12.429Z,75.75
2022-09-17T09:31:38.727Z,74.32
2022-09-17T09:34:05.037Z,74.07
2022-09-17T09:36:31.320Z,97.05
2022-09-17T09:38:57.635Z,59.90
2022-09-17T09:41:23.899Z,56.67
2022-09-17T09:44:03.729Z,65.53
2022-09-17T09:46:36.612Z,61.60
2022-09-17T09:49:02.932Z,51.13
2022-09-17T09:51:29.255Z,56.83
2022-09-17T09:53:55.525Z,70.60
2022-09-17T09:56:21.790Z,79.32
2022-09-17T09:58:48.049Z,78.75
2022-09-17T10:01:14.524Z,77.43
2022-09-17T10:03:41.073Z,74.63
2022-09-17T10:06:07.323Z,82.93
2022-09-17T10:08:33.579Z,65.40
2022-09-17T10:10:59.893Z,59.72
2022-09-17T10:13:26.267Z,78.03
2022-09-17T10:15:52.614Z,50.40
2022-09-17T10:18:19.011Z,102.35
2022-09-17T10:20:45.281Z,111.55
2022-09-17T10:23:11.539Z,96.68
2022-09-17T10:25:37.784Z,90.32
2022-09-17T10:28:04.048Z,82.50
2022-09-17T10:30:31.109Z,68.72
2022-09-17T10:32:57.309Z,83.70
2022-09-17T10:35:23.563Z,88.28
2022-09-17T10:37:49.814Z,92.95
2022-09-17T10:40:16.147Z,70.40
2022-09-17T10:42:42.437Z,72.32
2022-09-17T10:45:08.707Z,76.63
2022-09-17T10:47:34.959Z,74.88
2022-09-17T10:50:01.515Z,69.18
2022-09-17T10:52:27.835Z,71.93
2022-09-17T10:54:54.096Z,68.70
2022-09-17T10:57:20.356Z,68.40
2022-09-17T10:59:46.620Z,75.88
2022-09-17T11:02:12.991Z,73.18
2022-09-17T11:04:39.309Z,65.85
2022-09-17T11:07:05.707Z,79.30
2022-09-17T11:09:31.967Z,118.50
2022-09-17T11:11:58.231Z,75.20
2022-09-17T11:14:24.479Z,57.70
2022-09-17T11:16:50.801Z,67.57
2022-09-17T11:19:17.121Z,49.17
2022-09-17T11:21:45.393Z,59.22
2022-09-17T11:24:11.642Z,53.40
2022-09-17T11:26:37.903Z,73.53
2022-09-17T11:29:04.163Z,68.55
2022-09-17T11:31:30.483Z,64.70
2022-09-17T11:33:56.821Z,55.63
2022-09-17T11:36:23.073Z,70.10
2022-09-17T11:38:49.428Z,46.95
2022-09-17T11:41:15.748Z,49.60
2022-09-17T11:43:42.013Z,50.72
2022-09-17T11:46:08.804Z,74.63
2022-09-17T11:48:35.129Z,57.13
2022-09-17T11:51:01.533Z,79.22
2022-09-17T11:53:27.801Z,65.10
2022-09-17T11:55:54.059Z,54.17
2022-09-17T11:58:20.332Z,58.47
2022-09-17T12:00:46.712Z,51.42
2022-09-17T12:03:13.027Z,63.97
2022-09-17T12:05:39.315Z,45.42
2022-09-17T12:08:05.616Z,44.67
2022-09-17T12:10:31.947Z,47.00
2022-09-17T12:12:58.211Z,54.75
2022-09-17T12:15:24.496Z,52.10
2022-09-17T12:17:50.781Z,51.67
2022-09-17T12:20:17.041Z,60.42
2022-09-17T12:22:43.320Z,96.90
2022-09-17T12:25:09.588Z,145.65
2022-09-17T12:27:35.884Z,93.70
2022-09-17T12:30:02.145Z,111.05
2022-09-17T12:32:28.405Z,86.75
2022-09-17T12:34:54.695Z,107.30
2022-09-17T12:37:20.979Z,92.75
2022-09-17T12:39:47.245Z,78.30
2022-09-17T12:42:13.521Z,77.13
2022-09-17T12:44:39.782Z,86.60
2022-09-17T12:47:06.067Z,83.80
2022-09-17T12:49:32.331Z,96.10
2022-09-17T12:51:58.603Z,126.75
2022-09-17T12:54:24.885Z,112.45
2022-09-17T12:56:51.161Z,98.07
2022-09-17T12:59:19.293Z,68.47
2022-09-17T13:01:45.732Z,111.80
2022-09-17T13:04:12.805Z,86.88
2022-09-17T13:06:39.066Z,80.93
2022-09-17T13:09:06.066Z,99.00
2022-09-17T13:11:32.472Z,45.92
2022-09-17T13:13:58.723Z,56.42
2022-09-17T13:16:25.066Z,63.70
2022-09-17T13:19:14.930Z,70.15
2022-09-17T13:21:40.201Z,67.70
2022-09-17T13:24:06.594Z,68.72
2022-09-17T13:26:33.010Z,68.50
2022-09-17T13:28:59.285Z,69.30
2022-09-17T13:31:25.586Z,71.43
2022-09-17T13:33:51.884Z,57.67
2022-09-17T13:36:18.143Z,52.90
2022-09-17T13:38:44.383Z,55.72
2022-09-17T13:41:10.640Z,53.03
2022-09-17T13:43:38.024Z,54.78
2022-09-17T13:46:08.752Z,60.65
2022-09-17T13:48:35.063Z,52.30
2022-09-17T13:51:04.788Z,82.30
2022-09-17T13:53:31.781Z,67.22
2022-09-17T13:56:01.940Z,64.90
2022-09-17T13:58:28.193Z,91.43
2022-09-17T14:00:54.521Z,73.72
2022-09-17T14:03:20.879Z,53.78
2022-09-17T14:05:47.270Z,62.75
2022-09-17T14:08:13.958Z,91.18
2022-09-17T14:10:40.275Z,80.05
2022-09-17T14:13:06.542Z,82.38
2022-09-17T14:15:32.810Z,67.72
2022-09-17T14:17:59.072Z,65.72
2022-09-17T14:20:26.265Z,61.55
2022-09-17T14:22:52.530Z,51.20
2022-09-17T14:25:18.782Z,49.83
2022-09-17T14:27:45.031Z,46.42
2022-09-17T14:30:12.165Z,46.00
2022-09-17T14:32:39.251Z,43.33
2022-09-17T14:35:06.195Z,47.45
2022-09-17T14:37:32.461Z,50.45
2022-09-17T14:39:58.762Z,47.08
2022-09-17T14:42:25.020Z,51.25
2022-09-17T14:44:51.290Z,49.70
2022-09-17T14:47:17.569Z,49.17
2022-09-17T14:49:43.847Z,61.25
2022-09-17T14:52:10.100Z,52.15
2022-09-17T14:54:36.781Z,56.50
2022-09-17T14:57:03.159Z,50.70
2022-09-17T14:59:29.446Z,52.67
2022-09-17T15:01:55.765Z,52.20
2022-09-17T15:04:22.077Z,55.35
2022-09-17T15:06:48.336Z,102.88
2022-09-17T15:09:14.618Z,143.32
2022-09-17T15:11:41.143Z,151.32
2022-09-17T15:14:07.425Z,122.43
2022-09-17T15:16:34.803Z,105.97
2022-09-17T15:19:01.441Z,86.90
2022-09-17T15:21:27.810Z,89.57
2022-09-17T15:23:54.067Z,103.65
2022-09-17T15:26:20.325Z,80.43
2022-09-17T15:28:46.618Z,55.90
2022-09-17T15:31:12.919Z,82.38
2022-09-17T15:33:39.186Z,61.80
2022-09-17T15:36:07.873Z,57.45
2022-09-17T15:38:34.256Z,53.38
2022-09-17T15:41:00.512Z,51.60
2022-09-17T15:43:27.192Z,52.67
2022-09-17T15:45:53.452Z,50.58
2022-09-17T15:48:19.715Z,50.03
2022-09-17T15:50:46.067Z,50.45
2022-09-17T15:53:12.580Z,47.95
2022-09-17T15:55:40.859Z,44.42
2022-09-17T15:58:07.112Z,43.53
2022-09-17T16:00:33.377Z,56.15
2022-09-17T16:02:59.669Z,77.35
2022-09-17T16:05:25.974Z,65.55
2022-09-17T16:07:52.234Z,74.65
2022-09-17T16:10:18.490Z,91.18
2022-09-17T16:12:44.929Z,91.70
2022-09-17T16:15:11.363Z,82.50
2022-09-17T16:17:37.949Z,44.30
2022-09-17T16:20:06.389Z,51.58
2022-09-17T16:22:33.156Z,51.72
2022-09-17T16:24:59.422Z,79.72
2022-09-17T16:27:25.703Z,64.50
2022-09-17T16:29:52.561Z,82.15
2022-09-17T16:32:18.829Z,76.90
2022-09-17T16:34:45.084Z,56.50
2022-09-17T16:37:11.439Z,65.82
2022-09-17T16:39:37.692Z,58.53
2022-09-17T16:42:03.947Z,51.72
2022-09-17T16:44:30.232Z,59.05
2022-09-17T16:46:56.553Z,52.85
2022-09-17T16:49:22.864Z,55.33
2022-09-17T16:51:49.236Z,49.35
2022-09-17T16:54:15.488Z,47.95
2022-09-17T16:56:41.761Z,42.95
2022-09-17T16:59:08.031Z,46.08
2022-09-17T17:01:34.629Z,47.47
2022-09-17T17:04:01.114Z,42.30
2022-09-17T17:06:27.463Z,61.55
2022-09-17T17:08:53.790Z,54.10
2022-09-17T17:11:20.049Z,108.00
2022-09-17T17:13:46.320Z,115.30
2022-09-17T17:16:12.721Z,71.18
2022-09-17T17:18:39.160Z,44.85
2022-09-17T17:21:05.539Z,44.03
2022-09-17T17:23:31.903Z,44.03
2022-09-17T17:25:58.160Z,56.53
2022-09-17T17:28:24.403Z,42.05
2022-09-17T17:30:50.667Z,45.22
2022-09-17T17:33:16.942Z,54.83
2022-09-17T17:35:43.485Z,72.80
2022-09-17T17:38:09.790Z,58.38
2022-09-17T17:40:36.095Z,82.72
2022-09-17T17:43:02.464Z,100.93
2022-09-17T17:45:28.714Z,71.55
2022-09-17T17:47:54.969Z,60.83
2022-09-17T17:50:21.276Z,44.42
2022-09-17T17:52:48.667Z,54.83
2022-09-17T17:55:14.933Z,44.33
2022-09-17T17:57:41.307Z,51.28
2022-09-17T18:00:07.556Z,44.03
2022-09-17T18:02:33.918Z,41.97
2022-09-17T18:05:04.078Z,43.47
2022-09-17T18:07:30.824Z,42.85
2022-09-17T18:09:57.071Z,44.50
2022-09-17T18:12:26.816Z,51.83
2022-09-17T18:14:53.428Z,58.63
2022-09-17T18:17:19.683Z,53.65
2022-09-17T18:19:45.936Z,53.05
2022-09-17T18:22:12.194Z,48.42
2022-09-17T18:24:38.452Z,48.33
2022-09-17T18:27:04.703Z,45.20
2022-09-17T18:29:31.039Z,49.85
2022-09-17T18:31:57.287Z,43.47
2022-09-17T18:34:23.532Z,39.40
2022-09-17T18:36:51.318Z,42.35
2022-09-17T18:42:04.135Z,34.92
2022-09-17T18:44:30.388Z,45.47
2022-09-17T18:46:58.760Z,36.55
2022-09-17T18:49:25.044Z,41.38
2022-09-17T18:51:51.299Z,43.17
2022-09-17T18:54:17.591Z,40.53
2022-09-17T18:56:43.925Z,61.63
2022-09-17T18:59:10.215Z,72.95
2022-09-17T19:01:36.530Z,68.63
2022-09-17T19:04:02.852Z,44.13
2022-09-17T19:06:29.153Z,50.47
2022-09-17T19:08:55.780Z,49.50
2022-09-17T19:11:22.031Z,54.97
2022-09-17T19:13:50.087Z,50.92
2022-09-17T19:18:42.719Z,57.55
2022-09-17T19:21:09.005Z,54.72
2022-09-17T19:23:35.999Z,55.67
2022-09-17T19:26:02.277Z,51.35
2022-09-17T19:28:28.542Z,54.42
2022-09-17T19:30:54.923Z,53.97
2022-09-17T19:33:21.298Z,48.85
2022-09-17T19:35:50.519Z,48.92
2022-09-17T19:38:17.237Z,51.90
2022-09-17T19:40:44.804Z,53.85
2022-09-17T19:43:11.056Z,53.25
2022-09-17T19:45:37.300Z,55.53
2022-09-17T19:48:03.559Z,51.35
2022-09-17T19:50:29.845Z,50.83
2022-09-17T19:52:56.390Z,54.17
2022-09-17T19:55:22.916Z,62.60
2022-09-17T19:57:49.238Z,51.97
2022-09-17T20:00:15.491Z,59.97
2022-09-17T20:02:41.856Z,58.88
2022-09-17T20:05:08.205Z,65.35
2022-09-17T20:07:34.932Z,86.13
2022-09-17T20:10:01.261Z,79.00
2022-09-17T20:12:27.682Z,102.72
2022-09-17T20:14:54.013Z,98.32
2022-09-17T20:17:20.303Z,100.65
2022-09-17T20:19:46.788Z,85.32
2022-09-17T20:22:13.097Z,85.10
2022-09-17T20:24:39.365Z,85.22
2022-09-17T20:27:05.629Z,67.15
2022-09-17T20:29:31.928Z,72.35
2022-09-17T20:31:58.199Z,60.60
2022-09-17T20:34:24.443Z,60.88
2022-09-17T20:37:02.006Z,68.43
2022-09-17T20:39:36.951Z,67.97
2022-09-17T20:42:03.218Z,54.47
2022-09-17T20:44:29.471Z,62.97
2022-09-17T20:46:55.947Z,70.07
2022-09-17T20:49:22.255Z,66.10
2022-09-17T20:51:48.524Z,74.00
2022-09-17T20:54:14.788Z,81.63
2022-09-17T20:56:41.077Z,76.63
2022-09-17T20:59:14.957Z,62.90
2022-09-17T21:01:41.348Z,68.45
2022-09-17T21:04:07.657Z,48.38
2022-09-17T21:06:33.983Z,76.65
2022-09-17T21:09:00.292Z,57.13
2022-09-17T21:11:26.607Z,52.97
2022-09-17T21:13:52.859Z,45.83
2022-09-17T21:19:09.413Z,47.72
2022-09-17T21:21:37.512Z,50.85
2022-09-17T21:26:30.127Z,44.88
2022-09-17T21:28:56.386Z,50.83
2022-09-17T21:31:22.700Z,98.10
2022-09-17T21:33:50.849Z,73.45
2022-09-17T21:38:43.280Z,93.93
2022-09-17T21:41:09.555Z,82.25
2022-09-17T21:43:35.815Z,79.57
2022-09-17T21:46:05.507Z,70.07
2022-09-17T21:48:31.856Z,70.30
2022-09-17T21:50:58.118Z,69.85
2022-09-17T21:53:24.381Z,65.63
2022-09-17T21:55:50.632Z,57.60
2022-09-17T21:58:16.893Z,66.18
2022-09-17T22:00:43.139Z,66.25
2022-09-17T22:03:10.269Z,69.05
2022-09-17T22:05:38.451Z,61.73
2022-09-17T22:10:30.895Z,72.93
2022-09-17T22:12:57.163Z,53.35
2022-09-17T22:15:23.466Z,55.92
2022-09-17T22:17:49.725Z,62.25
2022-09-17T22:20:16.268Z,61.00
2022-09-17T22:22:42.548Z,73.57
2022-09-17T22:25:08.798Z,63.45
2022-09-17T22:27:35.075Z,59.92
2022-09-17T22:30:01.319Z,62.08
2022-09-17T22:32:28.624Z,69.80
2022-09-17T22:34:54.898Z,63.28
2022-09-17T22:37:21.158Z,92.78
2022-09-17T22:39:47.412Z,88.53
2022-09-17T22:42:13.685Z,69.93
2022-09-17T22:44:40.987Z,68.95
2022-09-17T22:47:07.251Z,63.30
2022-09-17T22:49:33.517Z,64.97
2022-09-17T22:51:59.768Z,64.07
2022-09-17T22:54:26.031Z,65.15
2022-09-17T22:56:52.291Z,54.22
2022-09-17T22:59:18.649Z,54.75
2022-09-17T23:01:45.013Z,58.72
2022-09-17T23:04:11.316Z,59.65
2022-09-17T23:06:38.229Z,66.53
2022-09-17T23:09:04.590Z,154.77
2022-09-17T23:11:31.136Z,171.88
2022-09-17T23:13:57.699Z,135.27
2022-09-17T23:16:23.964Z,89.95
2022-09-17T23:18:50.500Z,84.97
2022-09-17T23:21:16.865Z,89.68
2022-09-17T23:23:43.139Z,92.93
2022-09-17T23:26:09.391Z,99.85
2022-09-17T23:28:35.731Z,80.57
2022-09-17T23:31:02.035Z,108.47
2022-09-17T23:33:28.339Z,106.28
2022-09-17T23:35:54.587Z,129.32
2022-09-17T23:38:20.983Z,208.68
2022-09-17T23:40:47.239Z,260.52
2022-09-17T23:43:13.483Z,274.40
2022-09-17T23:45:39.755Z,157.60
2022-09-17T23:48:06.017Z,162.60
2022-09-17T23:50:32.281Z,108.25
2022-09-17T23:52:58.544Z,165.07
2022-09-17T23:55:24.824Z,176.25
2022-09-17T23:57:51.079Z,212.00
